Terminal Aerodrome Forecast
Issued by NWS

Home | Current Version | Previous Version | Text Only | Print | Product List | Glossary On
Versions: 1 2 3 4 5 6 7 8 9 10 11 12 13 14
000
FTUS43 KMQT 271135
TAFIWD
TAF
KIWD 271135Z 2712/2812 VRB03KT P6SM BKN150
     FM272300 08006KT P6SM VCSH OVC040
     FM280500 21006KT P6SM BKN050
      AMD LTD TO CLD VIS AND WIND=

USA.gov is the U.S. government's official web portal to all federal, state and local government web resources and services.